Current Weather

Provence

Provence, France (LFML)

Report from: Sunday, July 14, 2024 3:00 AM CEST
Current time: Sunday, July 14, 2024 3:24 AM CEST

Nearby weather – Weather history – Daily summaries
Weather forecast

Temperature22.0°C (71.6°F)
Dew point11.0°C (51.8°F)
Winds 5 kts (2.6 m/s, 5.8 mph) North-Northeast (30°)
Clouds Sky clear
Altimeter29.88 in.Hg (1012 mB)
Relative humidity50 %
Density altitude1,044 ft. (318 m)
Remarks Fully automated report
Ceiling and visibility OK
No significant changes expected in the next two hours
Flight conditions Visual Meteorological Conditions
Raw dataLFML 140100Z AUTO 03005KT CAVOK 22/11 Q1012 NOSIG
An error has occurred. This application may no longer respond until reloaded. Reload 🗙